createdAt,value
2018-07-22T00:00:36.978Z,61.05
2018-07-22T00:03:05.034Z,60.93
2018-07-22T00:05:33.129Z,61.65
2018-07-22T00:08:01.128Z,62.03
2018-07-22T00:10:30.236Z,62.01
2018-07-22T00:12:59.330Z,61.68
2018-07-22T00:15:27.369Z,63.05
2018-07-22T00:17:55.342Z,62.60
2018-07-22T00:20:23.611Z,64.05
2018-07-22T00:22:51.712Z,64.02
2018-07-22T00:25:19.676Z,64.70
2018-07-22T00:27:48.059Z,64.62
2018-07-22T00:30:16.048Z,64.59
2018-07-22T00:32:43.969Z,64.97
2018-07-22T00:35:12.718Z,64.49
2018-07-22T00:37:41.209Z,64.66
2018-07-22T00:40:10.575Z,64.84
2018-07-22T00:42:38.762Z,65.07
2018-07-22T00:45:08.723Z,65.33
2018-07-22T00:47:36.568Z,64.43
2018-07-22T00:50:05.364Z,65.33
2018-07-22T00:52:33.359Z,64.69
2018-07-22T00:55:01.188Z,65.33
2018-07-22T00:57:29.244Z,64.46
2018-07-22T00:59:57.215Z,64.79
2018-07-22T01:02:25.312Z,64.74
2018-07-22T01:04:53.505Z,66.46
2018-07-22T01:07:21.334Z,65.73
2018-07-22T01:09:49.204Z,65.55
2018-07-22T01:12:17.282Z,65.25
2018-07-22T01:14:45.151Z,65.45
2018-07-22T01:17:13.087Z,65.59
2018-07-22T01:19:41.357Z,65.04
2018-07-22T01:22:09.408Z,64.90
2018-07-22T01:24:37.460Z,65.63
2018-07-22T01:27:06.368Z,65.75
2018-07-22T01:29:34.398Z,65.76
2018-07-22T01:32:02.229Z,65.36
2018-07-22T01:34:30.266Z,65.69
2018-07-22T01:36:58.213Z,66.09
2018-07-22T01:39:26.092Z,65.80
2018-07-22T01:41:54.963Z,66.14
2018-07-22T01:44:22.819Z,65.98
2018-07-22T01:46:50.750Z,65.68
2018-07-22T01:49:18.775Z,66.48
2018-07-22T01:51:46.807Z,66.80
2018-07-22T01:54:14.898Z,66.99
2018-07-22T01:56:42.777Z,67.19
2018-07-22T01:59:10.774Z,67.43
2018-07-22T02:08:23.296Z,67.77
2018-07-22T02:10:51.226Z,68.45
2018-07-22T02:13:19.175Z,68.81
2018-07-22T02:15:47.237Z,68.76
2018-07-22T02:18:15.479Z,68.94
2018-07-22T02:20:44.647Z,68.92
2018-07-22T02:23:12.982Z,69.50
2018-07-22T02:25:40.833Z,69.03
2018-07-22T02:28:08.803Z,69.18
2018-07-22T02:30:37.231Z,69.24
2018-07-22T02:33:05.361Z,69.86
2018-07-22T02:35:33.305Z,70.62
2018-07-22T02:38:01.611Z,70.42
2018-07-22T02:40:29.482Z,70.04
2018-07-22T02:42:57.442Z,69.67
2018-07-22T02:45:25.609Z,69.41
2018-07-22T02:47:53.492Z,70.12
2018-07-22T02:50:21.441Z,70.55
2018-07-22T02:52:49.657Z,71.12
2018-07-22T02:55:17.769Z,70.81
2018-07-22T02:57:45.782Z,70.36
2018-07-22T03:00:14.791Z,70.12
2018-07-22T03:02:42.855Z,70.37
2018-07-22T03:05:10.782Z,70.00
2018-07-22T03:07:38.814Z,69.75
2018-07-22T03:10:06.690Z,68.59
2018-07-22T03:12:34.740Z,69.00
2018-07-22T03:15:03.039Z,68.57
2018-07-22T03:17:31.510Z,69.41
2018-07-22T03:19:59.426Z,68.94
2018-07-22T03:22:27.519Z,67.94
2018-07-22T03:24:56.073Z,68.14
2018-07-22T03:27:23.974Z,67.68
2018-07-22T03:29:51.883Z,67.19
2018-07-22T03:32:19.840Z,65.55
2018-07-22T03:34:47.897Z,64.72
2018-07-22T03:37:15.894Z,65.47
2018-07-22T03:39:43.996Z,66.06
2018-07-22T03:42:12.061Z,65.57
2018-07-22T03:44:40.232Z,64.96
2018-07-22T03:47:08.434Z,63.81
2018-07-22T03:49:36.387Z,64.68
2018-07-22T03:52:04.420Z,63.86
2018-07-22T03:54:32.451Z,63.40
2018-07-22T03:57:00.553Z,62.72
2018-07-22T03:59:28.571Z,62.71
2018-07-22T04:01:57.084Z,62.03
2018-07-22T04:04:25.012Z,61.43
2018-07-22T04:06:52.820Z,60.67
2018-07-22T04:09:21.120Z,61.14
2018-07-22T04:11:48.979Z,60.34
2018-07-22T04:14:16.956Z,61.49
2018-07-22T04:16:45.188Z,60.57
2018-07-22T04:19:12.995Z,59.67
2018-07-22T04:21:40.790Z,59.31
2018-07-22T04:25:11.575Z,58.21
2018-07-22T04:27:39.522Z,58.72
2018-07-22T04:30:07.404Z,58.83
2018-07-22T04:32:35.708Z,56.50
2018-07-22T04:35:03.758Z,58.39
2018-07-22T04:37:31.720Z,55.89
2018-07-22T04:39:59.876Z,55.30
2018-07-22T04:42:27.688Z,55.52
2018-07-22T04:51:40.189Z,55.26
2018-07-22T04:54:08.247Z,53.83
2018-07-22T04:56:36.268Z,53.15
2018-07-22T04:59:04.255Z,52.66
2018-07-22T05:01:32.244Z,50.68
2018-07-22T05:04:00.238Z,50.53
2018-07-22T05:06:28.505Z,49.78
2018-07-22T05:08:56.455Z,47.65
2018-07-22T05:11:24.438Z,47.20
2018-07-22T05:13:52.672Z,46.48
2018-07-22T05:16:20.637Z,46.25
2018-07-22T05:18:48.526Z,45.85
2018-07-22T05:21:16.743Z,47.39
2018-07-22T05:23:44.761Z,46.17
2018-07-22T05:26:12.601Z,45.14
2018-07-22T05:28:40.728Z,44.19
2018-07-22T05:31:08.790Z,47.34
2018-07-22T05:33:36.745Z,45.31
2018-07-22T05:36:04.770Z,44.01
2018-07-22T05:38:32.747Z,42.92
2018-07-22T05:41:00.735Z,43.03
2018-07-22T05:43:28.720Z,43.23
2018-07-22T05:45:56.938Z,45.20
2018-07-22T05:48:24.835Z,42.95
2018-07-22T05:50:52.666Z,41.95
2018-07-22T05:53:20.581Z,41.20
2018-07-22T05:55:49.499Z,42.83
2018-07-22T05:58:17.843Z,41.36
2018-07-22T06:00:45.779Z,40.47
2018-07-22T06:03:13.661Z,41.51
2018-07-22T06:05:41.527Z,40.77
2018-07-22T06:08:09.514Z,40.59
2018-07-22T06:10:37.517Z,38.77
2018-07-22T06:13:05.651Z,39.42
2018-07-22T06:15:33.549Z,40.61
2018-07-22T06:18:01.506Z,40.51
2018-07-22T06:20:29.515Z,41.54
2018-07-22T06:22:57.412Z,43.20
2018-07-22T06:25:25.379Z,44.11
2018-07-22T06:27:53.450Z,44.64
2018-07-22T06:30:21.349Z,43.93
2018-07-22T06:32:49.320Z,45.11
2018-07-22T06:35:17.548Z,44.04
2018-07-22T06:37:45.520Z,44.74
2018-07-22T06:40:13.548Z,45.10
2018-07-22T06:42:42.248Z,45.32
2018-07-22T06:45:10.395Z,45.81
2018-07-22T06:47:38.196Z,46.10
2018-07-22T06:50:06.237Z,46.74
2018-07-22T06:52:35.166Z,47.13
2018-07-22T06:55:03.196Z,46.58
2018-07-22T06:57:31.272Z,46.27
2018-07-22T06:59:59.290Z,47.48
2018-07-22T07:02:27.427Z,46.25
2018-07-22T07:04:55.401Z,45.82
2018-07-22T07:07:23.947Z,46.85
2018-07-22T07:09:51.958Z,46.77
2018-07-22T07:12:19.979Z,47.09
2018-07-22T07:14:47.954Z,47.49
2018-07-22T07:17:16.942Z,47.47
2018-07-22T07:19:44.815Z,46.54
2018-07-22T07:22:13.924Z,46.34
2018-07-22T07:24:41.799Z,46.58
2018-07-22T07:27:10.135Z,45.34
2018-07-22T07:29:38.640Z,44.73
2018-07-22T07:32:06.987Z,45.76
2018-07-22T07:34:34.935Z,44.81
2018-07-22T07:37:03.227Z,44.32
2018-07-22T07:40:34.106Z,44.88
2018-07-22T07:43:02.209Z,43.76
2018-07-22T07:45:30.149Z,43.01
2018-07-22T07:48:01.093Z,43.02
2018-07-22T07:50:29.201Z,44.58
2018-07-22T07:52:57.081Z,44.70
2018-07-22T07:55:25.109Z,43.90
2018-07-22T07:57:55.170Z,43.98
2018-07-22T08:00:23.161Z,41.91
2018-07-22T08:02:51.198Z,41.31
2018-07-22T08:05:19.562Z,42.40
2018-07-22T08:07:47.653Z,40.85
2018-07-22T08:10:15.590Z,42.11
2018-07-22T08:12:44.179Z,41.63
2018-07-22T08:15:12.358Z,42.35
2018-07-22T08:17:40.426Z,42.28
2018-07-22T08:20:09.231Z,42.55
2018-07-22T08:22:37.308Z,41.04
2018-07-22T08:25:06.108Z,42.57
2018-07-22T08:27:34.571Z,41.47
2018-07-22T08:30:02.834Z,40.68
2018-07-22T08:32:30.714Z,41.61
2018-07-22T08:34:58.925Z,42.34
2018-07-22T08:37:27.922Z,42.72
2018-07-22T08:39:55.971Z,42.33
2018-07-22T08:42:24.237Z,41.68
2018-07-22T08:44:52.334Z,42.52
2018-07-22T08:47:20.417Z,41.13
2018-07-22T08:49:49.668Z,41.72
2018-07-22T08:52:17.816Z,39.74
2018-07-22T08:54:45.800Z,39.62
2018-07-22T08:57:14.167Z,41.15
2018-07-22T08:59:42.127Z,41.51
2018-07-22T09:02:10.423Z,40.86
2018-07-22T09:04:38.614Z,39.96
2018-07-22T09:07:06.685Z,39.50
2018-07-22T09:09:34.665Z,39.32
2018-07-22T09:12:03.732Z,38.75
2018-07-22T09:14:31.854Z,39.66
2018-07-22T09:16:59.913Z,39.98
2018-07-22T09:19:27.980Z,40.18
2018-07-22T09:21:55.950Z,38.43
2018-07-22T09:24:23.914Z,39.93
2018-07-22T09:26:52.688Z,38.47
2018-07-22T09:29:20.663Z,37.43
2018-07-22T09:31:48.698Z,37.53
2018-07-22T09:34:17.434Z,37.92
2018-07-22T09:36:45.425Z,38.30
2018-07-22T09:39:13.542Z,38.62
2018-07-22T09:41:41.618Z,37.75
2018-07-22T09:44:09.616Z,37.57
2018-07-22T09:46:37.702Z,38.57
2018-07-22T09:49:05.896Z,38.06
2018-07-22T09:51:34.009Z,36.25
2018-07-22T09:54:02.028Z,37.85
2018-07-22T09:56:30.137Z,36.34
2018-07-22T09:58:58.051Z,36.15
2018-07-22T10:01:26.117Z,37.57
2018-07-22T10:03:54.250Z,36.36
2018-07-22T10:06:22.109Z,35.43
2018-07-22T10:08:49.914Z,34.50
2018-07-22T10:11:17.984Z,34.57
2018-07-22T10:13:45.813Z,35.84
2018-07-22T10:16:13.867Z,36.67
2018-07-22T10:18:42.378Z,35.73
2018-07-22T10:21:10.403Z,35.88
2018-07-22T10:23:38.411Z,35.54
2018-07-22T10:26:06.454Z,34.75
2018-07-22T10:28:34.453Z,34.71
2018-07-22T10:31:02.484Z,31.80
2018-07-22T10:33:30.516Z,32.24
2018-07-22T10:35:58.578Z,32.46
2018-07-22T10:38:26.539Z,31.05
2018-07-22T10:40:54.812Z,33.48
2018-07-22T10:43:22.815Z,31.77
2018-07-22T10:45:50.838Z,32.05
2018-07-22T10:48:19.055Z,31.19
2018-07-22T10:50:47.014Z,30.99
2018-07-22T10:53:15.045Z,32.29
2018-07-22T10:55:43.283Z,33.24
2018-07-22T10:58:11.193Z,32.64
2018-07-22T11:00:39.316Z,33.06
2018-07-22T11:03:07.732Z,33.25
2018-07-22T11:05:35.906Z,33.40
2018-07-22T11:08:03.940Z,33.83
2018-07-22T11:10:32.966Z,33.56
2018-07-22T11:13:00.766Z,32.71
2018-07-22T11:15:28.642Z,32.82
2018-07-22T11:17:56.833Z,32.26
2018-07-22T11:20:24.798Z,33.91
2018-07-22T11:22:52.585Z,32.57
2018-07-22T11:25:20.740Z,33.37
2018-07-22T11:27:48.549Z,32.76
2018-07-22T11:30:16.474Z,34.32
2018-07-22T11:32:44.956Z,34.48
2018-07-22T11:35:12.950Z,33.39
2018-07-22T11:37:40.855Z,32.42
2018-07-22T11:40:08.906Z,32.02
2018-07-22T11:42:36.927Z,32.84
2018-07-22T11:45:05.090Z,32.14
2018-07-22T11:47:32.952Z,31.23
2018-07-22T11:50:00.799Z,29.79
2018-07-22T11:52:28.870Z,31.49
2018-07-22T11:54:56.954Z,31.21
2018-07-22T11:57:24.848Z,31.09
2018-07-22T11:59:52.692Z,30.12
2018-07-22T12:02:21.038Z,31.16
2018-07-22T12:04:49.013Z,31.46
2018-07-22T12:07:17.036Z,30.62
2018-07-22T12:09:45.165Z,31.10
2018-07-22T12:12:13.226Z,30.65
2018-07-22T12:14:41.266Z,31.24
2018-07-22T12:17:09.286Z,30.37
2018-07-22T12:19:37.477Z,31.05
2018-07-22T12:22:05.382Z,31.22
2018-07-22T12:24:33.473Z,30.34
2018-07-22T12:27:01.515Z,30.04
2018-07-22T12:29:29.630Z,29.66
2018-07-22T12:31:57.502Z,30.02
2018-07-22T12:34:25.511Z,29.84
2018-07-22T12:36:53.490Z,30.14
2018-07-22T12:39:22.207Z,29.38
2018-07-22T12:41:50.137Z,30.68
2018-07-22T12:44:18.042Z,29.28
2018-07-22T12:46:46.271Z,30.84
2018-07-22T12:49:14.210Z,28.86
2018-07-22T12:51:42.147Z,29.30
2018-07-22T12:54:10.171Z,29.60
2018-07-22T12:56:38.140Z,28.92
2018-07-22T12:59:06.048Z,28.07
2018-07-22T13:01:34.336Z,28.73
2018-07-22T13:04:02.407Z,29.66
2018-07-22T13:06:30.474Z,30.86
2018-07-22T13:08:59.687Z,29.67
2018-07-22T13:11:27.701Z,30.60
2018-07-22T13:13:55.735Z,29.75
2018-07-22T13:16:23.836Z,30.62
2018-07-22T13:18:51.943Z,30.51
2018-07-22T13:21:19.991Z,31.54
2018-07-22T13:23:48.214Z,31.20
2018-07-22T13:26:16.240Z,30.84
2018-07-22T13:28:44.228Z,31.14
2018-07-22T13:31:12.151Z,30.00
2018-07-22T13:33:40.226Z,31.38
2018-07-22T13:36:08.235Z,31.20
2018-07-22T13:38:36.111Z,32.59
2018-07-22T13:41:04.086Z,32.76
2018-07-22T13:43:32.125Z,32.86
2018-07-22T13:46:00.185Z,32.80
2018-07-22T13:48:28.003Z,32.35
2018-07-22T13:50:56.063Z,31.91
2018-07-22T13:53:25.103Z,32.34
2018-07-22T13:55:53.017Z,32.24
2018-07-22T13:58:20.976Z,31.26
2018-07-22T14:00:49.447Z,31.07
2018-07-22T14:03:17.764Z,31.27
2018-07-22T14:05:45.762Z,30.95
2018-07-22T14:08:13.917Z,31.16
2018-07-22T14:10:41.902Z,32.53
2018-07-22T14:13:09.875Z,30.57
2018-07-22T14:15:38.030Z,31.01
2018-07-22T14:18:06.299Z,30.59
2018-07-22T14:20:34.352Z,30.59
2018-07-22T14:23:02.597Z,30.61
2018-07-22T14:25:30.593Z,30.54
2018-07-22T14:27:58.583Z,31.41
2018-07-22T14:30:27.318Z,30.21
2018-07-22T14:32:55.327Z,30.46
2018-07-22T14:35:23.361Z,29.86
2018-07-22T14:37:51.364Z,31.47
2018-07-22T14:40:19.272Z,30.42
2018-07-22T14:42:47.831Z,30.13
2018-07-22T14:45:15.982Z,30.72
2018-07-22T14:47:43.883Z,30.85
2018-07-22T14:50:11.947Z,32.02
2018-07-22T14:52:39.964Z,31.48
2018-07-22T14:55:08.050Z,31.96
2018-07-22T14:57:36.161Z,33.46
2018-07-22T15:00:04.883Z,34.55
2018-07-22T15:02:32.934Z,33.30
2018-07-22T15:05:00.761Z,33.51
2018-07-22T15:07:28.944Z,34.48
2018-07-22T15:09:56.969Z,34.44
2018-07-22T15:12:25.127Z,34.00
2018-07-22T15:14:53.093Z,34.71
2018-07-22T15:17:21.161Z,35.00
2018-07-22T15:19:50.087Z,35.56
2018-07-22T15:22:19.264Z,35.10
2018-07-22T15:24:47.283Z,34.55
2018-07-22T15:27:15.293Z,35.15
2018-07-22T15:29:43.439Z,34.43
2018-07-22T15:32:11.376Z,34.68
2018-07-22T15:34:39.483Z,34.04
2018-07-22T15:37:07.624Z,33.33
2018-07-22T15:39:35.789Z,34.79
2018-07-22T15:42:03.750Z,35.31
2018-07-22T15:44:31.788Z,35.95
2018-07-22T15:46:59.835Z,37.42
2018-07-22T15:49:27.957Z,38.99
2018-07-22T15:51:56.762Z,39.40
2018-07-22T15:54:24.994Z,39.22
2018-07-22T15:56:52.946Z,39.67
2018-07-22T15:59:21.075Z,40.33
2018-07-22T16:01:49.078Z,40.07
2018-07-22T16:04:17.126Z,40.54
2018-07-22T16:06:45.314Z,39.05
2018-07-22T16:09:13.276Z,40.88
2018-07-22T16:11:42.199Z,44.45
2018-07-22T16:14:10.293Z,48.43
2018-07-22T16:16:38.199Z,74.11
2018-07-22T16:19:06.376Z,82.73
2018-07-22T16:21:34.592Z,94.73
2018-07-22T16:24:02.561Z,97.81
2018-07-22T16:26:30.451Z,100.00
2018-07-22T16:28:58.959Z,93.53
2018-07-22T16:31:26.971Z,100.00
2018-07-22T16:33:54.858Z,100.00
2018-07-22T16:36:23.209Z,100.00
2018-07-22T16:38:51.242Z,100.00
2018-07-22T16:41:19.202Z,100.00
2018-07-22T16:43:47.441Z,95.28
2018-07-22T16:46:15.379Z,93.01
2018-07-22T16:48:43.217Z,100.00
2018-07-22T16:51:11.623Z,100.00
2018-07-22T16:53:39.669Z,100.00
2018-07-22T16:56:07.702Z,100.00
2018-07-22T16:58:35.808Z,100.00
2018-07-22T17:01:03.833Z,97.46
2018-07-22T17:03:31.857Z,96.90
2018-07-22T17:05:59.720Z,89.79
2018-07-22T17:08:27.512Z,89.32
2018-07-22T17:10:55.559Z,76.67
2018-07-22T17:13:23.570Z,82.74
2018-07-22T17:15:51.866Z,83.84
2018-07-22T17:18:19.802Z,79.82
2018-07-22T17:20:48.046Z,82.71
2018-07-22T17:23:16.079Z,84.98
2018-07-22T17:25:44.147Z,87.20
2018-07-22T17:28:12.497Z,90.09
2018-07-22T17:30:40.458Z,87.42
2018-07-22T17:33:08.494Z,84.19
2018-07-22T17:35:37.559Z,80.99
2018-07-22T17:38:05.489Z,83.84
2018-07-22T17:40:33.672Z,84.41
2018-07-22T17:43:02.502Z,84.13
2018-07-22T17:45:30.403Z,84.18
2018-07-22T17:47:58.399Z,83.31
2018-07-22T17:50:26.712Z,78.96
2018-07-22T17:52:54.732Z,85.63
2018-07-22T17:55:22.703Z,85.26
2018-07-22T17:57:50.698Z,84.00
2018-07-22T18:00:18.751Z,84.49
2018-07-22T18:03:19.702Z,83.11
2018-07-22T18:05:47.752Z,83.23
2018-07-22T18:08:15.675Z,81.79
2018-07-22T18:10:43.903Z,83.93
2018-07-22T18:13:11.748Z,85.41
2018-07-22T18:15:39.933Z,82.83
2018-07-22T18:18:08.029Z,84.00
2018-07-22T18:20:36.142Z,79.80
2018-07-22T18:23:04.225Z,81.80
2018-07-22T18:25:32.204Z,82.53
2018-07-22T18:28:00.410Z,82.10
2018-07-22T18:30:28.414Z,83.70
2018-07-22T18:32:56.490Z,84.58
2018-07-22T18:35:24.598Z,84.60
2018-07-22T18:37:52.880Z,84.22
2018-07-22T18:40:21.332Z,88.67
2018-07-22T18:42:49.355Z,90.82
2018-07-22T18:45:17.327Z,87.56
2018-07-22T18:47:45.380Z,88.82
2018-07-22T18:50:13.465Z,89.46
2018-07-22T18:52:41.439Z,91.81
2018-07-22T18:55:09.367Z,90.63
2018-07-22T18:57:37.507Z,88.49
2018-07-22T19:00:05.806Z,87.13
2018-07-22T19:02:34.314Z,86.27
2018-07-22T19:05:02.457Z,86.51
2018-07-22T19:07:30.330Z,86.57
2018-07-22T19:10:02.292Z,87.27
2018-07-22T19:12:30.256Z,87.35
2018-07-22T19:14:58.358Z,88.69
2018-07-22T19:17:30.009Z,87.82
2018-07-22T19:19:58.048Z,88.83
2018-07-22T19:22:25.976Z,88.75
2018-07-22T19:24:54.119Z,88.14
2018-07-22T19:27:22.150Z,86.93
2018-07-22T19:29:50.298Z,87.04
2018-07-22T19:32:18.231Z,87.55
2018-07-22T19:34:46.364Z,87.32
2018-07-22T19:37:14.514Z,86.49
2018-07-22T19:39:42.494Z,87.07
2018-07-22T19:42:10.453Z,86.18
2018-07-22T19:44:38.431Z,88.10
2018-07-22T19:47:06.703Z,88.09
2018-07-22T19:49:34.757Z,88.02
2018-07-22T19:52:02.722Z,88.10
2018-07-22T19:54:30.926Z,88.59
2018-07-22T19:56:59.030Z,87.41
2018-07-22T19:59:26.862Z,87.06
2018-07-22T20:01:55.337Z,86.38
2018-07-22T20:04:23.297Z,87.09
2018-07-22T20:06:51.487Z,87.02
2018-07-22T20:09:19.757Z,85.45
2018-07-22T20:11:48.022Z,86.47
2018-07-22T20:14:16.108Z,86.27
2018-07-22T20:16:44.555Z,84.89
2018-07-22T20:19:12.586Z,85.21
2018-07-22T20:21:40.504Z,84.60
2018-07-22T20:24:08.961Z,84.46
2018-07-22T20:26:37.113Z,84.14
2018-07-22T20:29:05.231Z,84.55
2018-07-22T20:31:33.231Z,85.12
2018-07-22T20:34:01.231Z,83.24
2018-07-22T20:36:29.134Z,84.52
2018-07-22T20:38:57.320Z,84.91
2018-07-22T20:41:25.506Z,83.77
2018-07-22T20:43:53.642Z,85.11
2018-07-22T20:46:22.140Z,83.02
2018-07-22T20:48:50.206Z,83.49
2018-07-22T20:51:18.167Z,83.47
2018-07-22T20:53:46.565Z,82.52
2018-07-22T20:56:14.417Z,82.16
2018-07-22T20:58:43.198Z,82.47
2018-07-22T21:01:11.230Z,81.92
2018-07-22T21:03:39.159Z,80.74
2018-07-22T21:06:07.062Z,81.44
2018-07-22T21:08:35.568Z,82.00
2018-07-22T21:11:03.728Z,81.71
2018-07-22T21:13:31.687Z,83.53
2018-07-22T21:15:59.969Z,82.64
2018-07-22T21:18:27.933Z,83.56
2018-07-22T21:20:56.105Z,80.20
2018-07-22T21:23:24.280Z,81.55
2018-07-22T21:25:52.475Z,82.22
2018-07-22T21:28:20.430Z,82.96
2018-07-22T21:30:48.803Z,82.00
2018-07-22T21:33:16.838Z,83.93
2018-07-22T21:35:44.918Z,83.98
2018-07-22T21:38:13.280Z,83.45
2018-07-22T21:40:41.181Z,82.75
2018-07-22T21:43:09.245Z,80.58
2018-07-22T21:45:37.404Z,80.55
2018-07-22T21:48:05.505Z,81.15
2018-07-22T21:50:33.523Z,81.00
2018-07-22T21:53:01.697Z,81.47
2018-07-22T21:55:29.608Z,82.47
2018-07-22T21:57:57.754Z,84.26
2018-07-22T22:00:32.214Z,84.00
2018-07-22T22:03:01.723Z,83.00
2018-07-22T22:05:29.687Z,83.06
2018-07-22T22:07:58.427Z,83.09
2018-07-22T22:10:26.768Z,83.15
2018-07-22T22:12:55.092Z,84.51
2018-07-22T22:15:28.128Z,83.94
2018-07-22T22:17:59.120Z,85.03
2018-07-22T22:20:27.641Z,84.22
2018-07-22T22:22:56.249Z,86.41
2018-07-22T22:25:24.287Z,86.95
2018-07-22T22:27:52.439Z,87.31
2018-07-22T22:30:20.382Z,87.20
2018-07-22T22:32:48.614Z,87.10
2018-07-22T22:35:16.544Z,86.49
2018-07-22T22:37:45.346Z,86.45
2018-07-22T22:40:14.235Z,86.47
2018-07-22T22:42:43.603Z,86.79
2018-07-22T22:45:12.560Z,87.55
2018-07-22T22:47:40.596Z,87.09
2018-07-22T22:50:08.672Z,88.09
2018-07-22T22:52:36.760Z,87.68
2018-07-22T22:55:04.867Z,86.83
2018-07-22T22:57:32.860Z,87.21
2018-07-22T23:00:01.372Z,87.13
2018-07-22T23:02:35.424Z,86.03
2018-07-22T23:05:04.338Z,87.37
2018-07-22T23:07:32.312Z,87.63
2018-07-22T23:10:00.359Z,88.02
2018-07-22T23:12:28.436Z,87.13
2018-07-22T23:14:56.498Z,86.92
2018-07-22T23:17:24.646Z,87.13
2018-07-22T23:19:52.666Z,87.25
2018-07-22T23:22:20.738Z,87.19
2018-07-22T23:24:48.731Z,86.08
2018-07-22T23:27:16.818Z,86.98
2018-07-22T23:29:44.971Z,87.11
2018-07-22T23:32:13.007Z,86.60
2018-07-22T23:34:41.088Z,87.35
2018-07-22T23:37:09.115Z,85.71
2018-07-22T23:42:04.704Z,84.27
2018-07-22T23:44:32.745Z,84.50
2018-07-22T23:47:00.845Z,85.23
2018-07-22T23:49:28.837Z,85.24
2018-07-22T23:51:56.949Z,85.68
2018-07-22T23:54:25.016Z,85.97
2018-07-22T23:56:53.526Z,86.34
2018-07-22T23:59:21.532Z,86.88
